Time;durP1;ratioP1;P1;durP2;ratioP2;P2;SDS_P1;SDS_P2;PMS_P1;PMS_P2;Temp;Humidity;BMP_temperature;BMP_pressure;BME280_temperature;BME280_humidity;BME280_pressure;Samples;Min_cycle;Max_cycle;Signal;HPM_P1;HPM_P2
2023/10/26 00:00:42;;;;;;;7.47;2.35;;;;;;;15.44;69.82;97602.25;4436058;32;34091;-87
2023/10/26 00:03:10;;;;;;;5.20;2.00;;;;;;;15.49;69.58;97596.00;4445778;32;35025;-86
2023/10/26 00:05:37;;;;;;;7.03;2.20;;;;;;;15.39;69.80;97588.50;4440107;32;34339;-85
2023/10/26 00:08:05;;;;;;;5.45;2.05;;;;;;;15.29;70.13;97577.47;4449900;32;34103;-87
2023/10/26 00:10:33;;;;;;;5.45;2.03;;;;;;;15.23;70.18;97573.31;4435715;32;36360;-85
2023/10/26 00:13:00;;;;;;;8.65;2.22;;;;;;;15.26;70.12;97570.59;4435424;32;34057;-87
2023/10/26 00:15:28;;;;;;;5.03;2.10;;;;;;;15.19;70.01;97576.94;4435112;32;33331;-86
2023/10/26 00:17:55;;;;;;;5.15;1.90;;;;;;;15.08;70.35;97571.19;4435200;32;34490;-87
2023/10/26 00:20:23;;;;;;;6.55;2.10;;;;;;;15.18;69.99;97579.56;4435186;32;34257;-87
2023/10/26 00:22:50;;;;;;;8.23;2.17;;;;;;;15.14;70.07;97578.81;4421266;32;34781;-86
2023/10/26 00:25:18;;;;;;;6.80;2.20;;;;;;;14.90;70.91;97572.59;4421817;32;33422;-87
2023/10/26 00:27:45;;;;;;;7.85;1.85;;;;;;;15.15;70.06;97559.63;4435352;32;33640;-86
2023/10/26 00:30:13;;;;;;;7.20;1.90;;;;;;;14.97;70.61;97555.00;4434788;32;33491;-87
2023/10/26 00:32:41;;;;;;;6.78;1.98;;;;;;;15.02;70.47;97556.56;4435002;32;33666;-86
2023/10/26 00:35:09;;;;;;;5.75;2.03;;;;;;;14.98;70.67;97556.72;4435105;32;33709;-86
2023/10/26 00:37:37;;;;;;;7.10;1.77;;;;;;;14.93;70.95;97554.25;4435324;32;34070;-87
2023/10/26 00:40:05;;;;;;;6.45;2.00;;;;;;;15.05;70.40;97556.47;4443856;32;34795;-86
2023/10/26 00:42:33;;;;;;;6.87;1.87;;;;;;;15.04;70.35;97562.59;4447054;32;34183;-86
2023/10/26 00:45:00;;;;;;;6.05;2.17;;;;;;;15.00;70.58;97549.66;4443198;32;33714;-86
2023/10/26 00:47:28;;;;;;;8.02;1.90;;;;;;;14.93;70.75;97554.25;4437508;32;34083;-87
2023/10/26 00:49:56;;;;;;;4.78;1.80;;;;;;;15.02;70.22;97548.72;4427984;32;34878;-87
2023/10/26 00:52:23;;;;;;;6.87;1.92;;;;;;;15.05;69.93;97547.78;4421159;32;34160;-86
2023/10/26 00:54:52;;;;;;;4.72;1.75;;;;;;;14.98;69.97;97544.50;4426579;32;32788;-85
2023/10/26 00:57:22;;;;;;;7.35;1.65;;;;;;;14.98;69.94;97552.34;4421981;32;34522;-87
2023/10/26 00:59:50;;;;;;;5.35;1.65;;;;;;;15.08;69.47;97552.94;4425522;32;34235;-87
2023/10/26 01:02:18;;;;;;;6.30;2.00;;;;;;;15.20;68.91;97549.91;4447123;32;33933;-87
2023/10/26 01:04:46;;;;;;;5.45;1.33;;;;;;;15.05;69.33;97548.63;4445928;32;33298;-86
2023/10/26 01:07:13;;;;;;;6.10;1.60;;;;;;;14.99;69.44;97548.81;4452758;32;34289;-86
2023/10/26 01:09:42;;;;;;;7.18;1.85;;;;;;;15.13;68.72;97539.72;4448682;32;34203;-86
2023/10/26 01:12:09;;;;;;;5.25;1.48;;;;;;;15.00;69.06;97541.84;4437285;32;35264;-85
2023/10/26 01:14:37;;;;;;;7.22;1.92;;;;;;;14.95;69.26;97549.81;4430739;32;34371;-85
2023/10/26 01:17:05;;;;;;;7.57;1.80;;;;;;;14.86;69.55;97546.66;4437652;32;33718;-86
2023/10/26 01:19:40;;;;;;;6.35;2.05;;;;;;;14.66;70.21;97540.28;4439034;32;34150;-86
2023/10/26 01:22:08;;;;;;;6.72;2.15;;;;;;;14.81;70.06;97534.59;4423756;32;34230;-87
2023/10/26 01:24:36;;;;;;;7.43;2.03;;;;;;;14.68;70.02;97527.19;4442807;32;33307;-85
2023/10/26 01:27:04;;;;;;;4.85;1.60;;;;;;;14.70;70.00;97525.38;4436346;32;33957;-85
2023/10/26 01:29:32;;;;;;;7.93;1.87;;;;;;;14.62;70.14;97525.59;4437215;32;34926;-86
2023/10/26 01:32:00;;;;;;;7.82;2.15;;;;;;;14.63;70.12;97521.25;4422976;32;34612;-85
2023/10/26 01:34:28;;;;;;;7.87;2.12;;;;;;;14.62;70.45;97524.75;4423322;32;33382;-86
2023/10/26 01:36:55;;;;;;;6.12;2.40;;;;;;;14.57;70.74;97524.87;4437059;32;34270;-86
2023/10/26 01:39:24;;;;;;;6.10;2.30;;;;;;;14.32;71.87;97516.91;4436315;32;34934;-85
2023/10/26 01:41:51;;;;;;;7.90;2.70;;;;;;;14.57;71.22;97523.13;4435522;32;36299;-84
2023/10/26 01:44:19;;;;;;;7.25;2.28;;;;;;;14.79;70.51;97520.75;4449612;32;33815;-86
2023/10/26 01:46:46;;;;;;;5.62;2.25;;;;;;;14.62;70.83;97522.13;4445789;32;33831;-87
2023/10/26 01:49:14;;;;;;;12.52;2.50;;;;;;;14.81;70.53;97528.50;4439666;32;33834;-86
2023/10/26 01:51:42;;;;;;;6.30;2.15;;;;;;;14.75;70.94;97533.94;4438081;32;33991;-87
2023/10/26 01:54:09;;;;;;;6.43;2.45;;;;;;;14.73;71.51;97535.72;4439483;32;33491;-86
2023/10/26 01:56:39;;;;;;;7.12;2.20;;;;;;;14.72;72.02;97534.88;4439937;32;33139;-86
2023/10/26 01:59:07;;;;;;;7.80;2.33;;;;;;;14.68;72.00;97524.56;4449255;32;33378;-87
2023/10/26 02:01:34;;;;;;;8.05;2.47;;;;;;;14.75;71.40;97518.28;4449766;32;34080;-86
2023/10/26 02:04:03;;;;;;;6.95;2.12;;;;;;;14.69;72.21;97514.06;4438211;32;33460;-86
2023/10/26 02:06:30;;;;;;;8.27;2.15;;;;;;;14.71;71.54;97514.06;4439003;32;33795;-86
2023/10/26 02:08:58;;;;;;;7.97;2.08;;;;;;;14.63;71.53;97506.47;4446247;32;34080;-86
2023/10/26 02:11:26;;;;;;;7.10;2.25;;;;;;;14.72;71.93;97515.75;4449164;32;34032;-86
2023/10/26 02:13:53;;;;;;;5.85;2.12;;;;;;;14.98;71.19;97507.97;4439654;32;33557;-86
2023/10/26 02:16:21;;;;;;;5.78;1.92;;;;;;;14.92;71.76;97513.38;4438871;32;33707;-87
2023/10/26 02:18:49;;;;;;;7.85;2.10;;;;;;;14.66;72.20;97514.19;4449155;32;33671;-87
2023/10/26 02:21:16;;;;;;;6.70;1.92;;;;;;;14.72;71.44;97508.78;4450771;32;34603;-86
2023/10/26 02:23:44;;;;;;;6.93;2.72;;;;;;;14.74;71.01;97503.53;4437738;32;33521;-85
2023/10/26 02:26:12;;;;;;;7.78;2.17;;;;;;;14.65;71.85;97501.19;4437868;32;34512;-87
2023/10/26 02:28:39;;;;;;;6.50;2.00;;;;;;;14.68;70.83;97501.94;4450059;32;33447;-86
2023/10/26 02:31:07;;;;;;;9.93;2.30;;;;;;;14.62;71.05;97496.06;4448482;32;34403;-85
2023/10/26 02:33:34;;;;;;;7.35;2.15;;;;;;;14.59;71.04;97497.88;4444104;32;34380;-86
2023/10/26 02:36:04;;;;;;;6.70;1.92;;;;;;;14.86;70.54;97500.53;4426106;32;33620;-86
2023/10/26 02:38:32;;;;;;;8.75;2.78;;;;;;;14.68;71.54;97490.66;4448827;32;33747;-84
2023/10/26 02:41:04;;;;;;;5.45;2.12;;;;;;;14.58;72.09;97490.06;4435257;32;33702;-86
2023/10/26 02:43:31;;;;;;;8.48;2.60;;;;;;;14.57;71.68;97496.19;4422428;32;33514;-85
2023/10/26 02:46:06;;;;;;;10.13;2.25;;;;;;;15.00;70.26;97494.88;4435647;32;33961;-86
2023/10/26 02:48:33;;;;;;;8.30;2.20;;;;;;;14.60;70.78;97499.56;4435613;32;34145;-86
2023/10/26 02:51:03;;;;;;;6.72;2.55;;;;;;;14.60;71.33;97496.13;4445320;32;34058;-86
2023/10/26 02:53:31;;;;;;;9.75;2.85;;;;;;;14.60;71.41;97502.19;4446774;32;32297;-86
2023/10/26 02:55:58;;;;;;;6.35;2.45;;;;;;;14.46;72.29;97486.06;4451905;32;34296;-85
2023/10/26 02:58:26;;;;;;;6.15;2.30;;;;;;;14.44;72.46;97492.22;4425696;32;34255;-86
2023/10/26 03:00:54;;;;;;;7.07;2.45;;;;;;;14.54;71.39;97489.31;4436423;32;33741;-86
2023/10/26 03:03:22;;;;;;;8.25;2.12;;;;;;;14.41;71.91;97485.34;4430895;32;34531;-86
2023/10/26 03:05:51;;;;;;;9.13;2.15;;;;;;;14.65;70.36;97486.37;4440523;32;33818;-85
2023/10/26 03:08:19;;;;;;;8.10;2.22;;;;;;;14.52;71.27;97491.13;4430694;32;34950;-86
2023/10/26 03:10:47;;;;;;;5.53;2.33;;;;;;;14.39;71.18;97497.56;4423444;32;34045;-86
2023/10/26 03:13:14;;;;;;;8.15;2.42;;;;;;;14.40;70.61;97490.62;4436734;32;33474;-87
2023/10/26 03:15:42;;;;;;;6.30;2.40;;;;;;;14.33;70.75;97495.16;4436234;32;33463;-87
2023/10/26 03:18:10;;;;;;;8.88;2.20;;;;;;;14.37;70.41;97494.16;4442939;32;33960;-86
2023/10/26 03:20:39;;;;;;;6.07;2.37;;;;;;;14.32;70.63;97503.88;4449502;32;33986;-86
2023/10/26 03:23:06;;;;;;;13.38;2.83;;;;;;;14.45;70.02;97504.38;4444370;32;34677;-85
2023/10/26 03:25:33;;;;;;;6.47;2.17;;;;;;;14.18;71.98;97506.88;4436781;32;34959;-86
2023/10/26 03:28:01;;;;;;;8.75;2.42;;;;;;;14.22;71.40;97505.03;4436173;32;34710;-86
2023/10/26 03:30:32;;;;;;;7.50;2.60;;;;;;;14.23;71.22;97504.12;4437660;32;34837;-85
2023/10/26 03:32:59;;;;;;;9.75;3.20;;;;;;;14.18;71.53;97506.00;4442584;32;33436;-86
2023/10/26 03:35:27;;;;;;;4.90;2.03;;;;;;;14.29;71.06;97510.03;4447909;32;33782;-85
2023/10/26 03:37:54;;;;;;;6.82;2.55;;;;;;;14.36;70.39;97510.72;4436258;32;34950;-86
2023/10/26 03:40:22;;;;;;;9.00;2.70;;;;;;;14.21;70.63;97512.00;4436834;32;34813;-84
2023/10/26 03:42:50;;;;;;;7.72;2.60;;;;;;;14.23;70.85;97509.34;4440362;32;34294;-86
2023/10/26 03:45:18;;;;;;;5.78;2.92;;;;;;;14.27;70.85;97505.75;4445713;32;34553;-86
2023/10/26 03:47:45;;;;;;;5.90;2.60;;;;;;;14.20;71.10;97504.19;4435810;32;34133;-87
2023/10/26 03:50:13;;;;;;;7.10;2.37;;;;;;;14.07;72.75;97509.75;4439510;32;34284;-87
2023/10/26 03:52:43;;;;;;;8.13;2.58;;;;;;;14.03;72.87;97508.16;4445264;32;34027;-87
2023/10/26 03:55:11;;;;;;;11.88;2.87;;;;;;;14.22;71.40;97507.63;4435868;32;34614;-86
2023/10/26 03:57:39;;;;;;;9.52;3.20;;;;;;;14.37;71.07;97501.97;4421437;32;34008;-86
2023/10/26 04:00:09;;;;;;;7.00;2.65;;;;;;;14.35;71.11;97498.53;4435584;32;34243;-86
2023/10/26 04:02:38;;;;;;;8.68;2.33;;;;;;;14.14;71.53;97501.78;4435937;32;32878;-87
2023/10/26 04:05:08;;;;;;;9.30;3.08;;;;;;;14.10;71.02;97503.63;4435640;32;34909;-86
2023/10/26 04:07:38;;;;;;;5.82;2.40;;;;;;;14.18;71.24;97500.81;4449615;32;34109;-86
2023/10/26 04:10:07;;;;;;;7.95;2.83;;;;;;;14.17;70.85;97499.06;4436227;32;34797;-86
2023/10/26 04:12:35;;;;;;;5.87;2.28;;;;;;;14.25;70.41;97502.34;4446973;32;34492;-86
2023/10/26 04:15:03;;;;;;;8.07;2.62;;;;;;;14.24;69.99;97504.06;4435946;32;33717;-86
2023/10/26 04:17:31;;;;;;;7.90;2.20;;;;;;;14.24;70.05;97508.44;4428784;32;34178;-86
2023/10/26 04:20:01;;;;;;;8.70;2.67;;;;;;;14.16;69.88;97500.81;4445698;32;34461;-87
2023/10/26 04:22:28;;;;;;;5.97;2.67;;;;;;;14.05;70.27;97497.66;4424865;32;33681;-86
2023/10/26 04:24:56;;;;;;;6.60;2.58;;;;;;;14.03;70.22;97502.94;4439702;32;33591;-86
2023/10/26 04:27:23;;;;;;;6.07;2.12;;;;;;;14.09;69.94;97507.97;4447623;32;34001;-86
2023/10/26 04:29:51;;;;;;;7.68;3.08;;;;;;;14.23;69.41;97504.12;4449893;32;33772;-86
2023/10/26 04:32:18;;;;;;;6.90;2.50;;;;;;;14.19;69.62;97502.50;4432833;32;32798;-86
2023/10/26 04:34:46;;;;;;;8.60;2.72;;;;;;;14.05;70.02;97508.09;4437050;32;34345;-86
2023/10/26 04:37:14;;;;;;;6.12;2.80;;;;;;;14.20;69.75;97504.19;4435959;32;35052;-86
2023/10/26 04:39:43;;;;;;;6.37;2.58;;;;;;;14.00;70.36;97507.38;4434835;32;34194;-87
2023/10/26 04:42:12;;;;;;;7.18;3.05;;;;;;;14.12;69.87;97505.25;4434280;32;33699;-86
2023/10/26 04:44:40;;;;;;;6.50;2.60;;;;;;;14.08;69.81;97511.47;4421447;32;34679;-85
2023/10/26 04:47:09;;;;;;;7.68;2.45;;;;;;;14.08;69.66;97501.03;4422884;32;33826;-86
2023/10/26 04:49:37;;;;;;;8.88;2.58;;;;;;;14.12;69.53;97504.41;4438192;32;33845;-85
2023/10/26 04:52:05;;;;;;;6.40;2.97;;;;;;;14.13;69.48;97511.38;4444486;32;34544;-85
2023/10/26 04:54:32;;;;;;;5.60;2.37;;;;;;;14.17;69.17;97502.56;4441840;32;34617;-84
2023/10/26 04:57:00;;;;;;;6.68;2.75;;;;;;;14.25;68.95;97503.19;4447514;32;35062;-85
2023/10/26 04:59:27;;;;;;;6.10;2.90;;;;;;;14.21;69.09;97505.94;4438437;32;33502;-85
2023/10/26 05:01:55;;;;;;;8.75;2.92;;;;;;;14.30;69.24;97503.91;4443883;32;33636;-84
2023/10/26 05:04:23;;;;;;;7.35;3.03;;;;;;;14.26;69.55;97506.66;4450666;32;34248;-85
2023/10/26 05:06:51;;;;;;;9.50;2.80;;;;;;;14.38;69.43;97511.50;4449789;32;33730;-85
2023/10/26 05:09:18;;;;;;;10.30;2.97;;;;;;;14.26;70.04;97504.03;4449767;32;34300;-86
2023/10/26 05:11:46;;;;;;;9.07;3.50;;;;;;;14.27;70.32;97510.94;4447258;32;34067;-85
2023/10/26 05:14:13;;;;;;;7.25;3.62;;;;;;;14.33;70.47;97503.81;4449073;32;33656;-86
2023/10/26 05:16:41;;;;;;;8.02;3.45;;;;;;;14.30;71.08;97505.66;4438429;32;34667;-85
2023/10/26 05:19:09;;;;;;;5.50;2.70;;;;;;;14.36;71.51;97508.09;4438327;32;34010;-86
2023/10/26 05:21:36;;;;;;;6.12;3.25;;;;;;;14.38;71.41;97514.09;4438805;32;34578;-86
2023/10/26 05:24:04;;;;;;;7.70;3.35;;;;;;;14.51;71.14;97512.91;4449265;32;34809;-86
2023/10/26 05:26:32;;;;;;;9.70;3.72;;;;;;;14.43;71.76;97525.25;4450261;32;33914;-85
2023/10/26 05:29:02;;;;;;;10.68;3.55;;;;;;;14.27;73.17;97516.16;4444515;32;34237;-86
2023/10/26 05:31:30;;;;;;;9.50;3.78;;;;;;;14.45;73.49;97520.84;4444320;32;34324;-87
2023/10/26 05:33:57;;;;;;;8.35;3.60;;;;;;;14.51;73.28;97520.72;4436779;32;34779;-85
2023/10/26 05:36:25;;;;;;;10.48;5.78;;;;;;;14.46;74.46;97525.16;4446632;32;34012;-86
2023/10/26 05:38:52;;;;;;;10.43;3.72;;;;;;;14.40;75.65;97529.72;4434548;32;34959;-87
2023/10/26 05:41:20;;;;;;;9.40;4.22;;;;;;;14.32;76.98;97522.97;4434607;32;34542;-87
2023/10/26 05:43:47;;;;;;;12.48;4.50;;;;;;;14.73;75.53;97530.50;4435827;32;33864;-85
2023/10/26 05:46:15;;;;;;;10.43;3.87;;;;;;;14.40;76.98;97530.56;4449088;32;35195;-86
2023/10/26 05:48:43;;;;;;;10.88;3.50;;;;;;;14.67;75.90;97533.31;4452396;32;33795;-85
2023/10/26 05:51:10;;;;;;;7.43;3.55;;;;;;;14.68;76.05;97532.41;4452497;32;33697;-86
2023/10/26 05:53:38;;;;;;;13.73;5.57;;;;;;;14.44;77.28;97524.37;4446259;32;34227;-85
2023/10/26 05:56:07;;;;;;;14.65;5.25;;;;;;;14.30;77.63;97534.31;4446098;32;33686;-87
2023/10/26 05:58:34;;;;;;;9.32;4.75;;;;;;;14.44;76.57;97542.62;4436621;32;33998;-87
2023/10/26 06:01:02;;;;;;;10.57;4.97;;;;;;;14.45;76.76;97549.53;4422956;32;33370;-87
2023/10/26 06:03:30;;;;;;;9.13;4.40;;;;;;;14.52;76.62;97548.50;4423082;32;33347;-87
2023/10/26 06:05:59;;;;;;;10.60;4.37;;;;;;;14.72;76.11;97560.09;4436597;32;34142;-86
2023/10/26 06:08:27;;;;;;;8.98;4.00;;;;;;;14.66;76.50;97568.09;4423061;32;34271;-86
2023/10/26 06:10:55;;;;;;;12.68;3.85;;;;;;;14.82;76.24;97578.03;4422809;32;33749;-85
2023/10/26 06:13:22;;;;;;;8.00;3.40;;;;;;;14.82;76.18;97575.44;4450505;32;34003;-86
2023/10/26 06:15:50;;;;;;;13.85;6.57;;;;;;;14.87;76.18;97575.28;4452307;32;33820;-86
2023/10/26 06:18:18;;;;;;;20.75;15.35;;;;;;;15.01;76.06;97578.34;4434985;32;34107;-86
2023/10/26 06:21:01;;;;;;;11.60;6.35;;;;;;;15.08;75.50;97584.25;4452033;32;33872;-87
2023/10/26 06:23:28;;;;;;;10.82;4.10;;;;;;;15.08;75.35;97595.53;4451954;32;34304;-86
2023/10/26 06:26:00;;;;;;;15.85;7.68;;;;;;;15.15;74.50;97590.09;4451928;32;33960;-87
2023/10/26 06:28:28;;;;;;;9.52;4.07;;;;;;;15.04;75.13;97600.91;4444767;32;34936;-86
2023/10/26 06:30:56;;;;;;;11.88;4.75;;;;;;;14.87;75.52;97600.53;4422671;32;33198;-86
2023/10/26 06:33:25;;;;;;;7.22;4.12;;;;;;;15.11;74.72;97598.94;4422518;32;33609;-87
2023/10/26 06:35:53;;;;;;;9.48;4.47;;;;;;;14.90;74.54;97585.66;4436421;32;33779;-86
2023/10/26 06:38:20;;;;;;;6.68;4.30;;;;;;;14.88;74.82;97583.97;4440173;32;34010;-85
2023/10/26 06:40:47;;;;;;;11.55;4.47;;;;;;;14.94;75.19;97594.25;4451861;32;34492;-86
2023/10/26 06:43:15;;;;;;;15.10;5.22;;;;;;;15.00;74.83;97596.66;4451983;32;33738;-86
2023/10/26 06:45:42;;;;;;;6.85;4.72;;;;;;;15.12;73.85;97604.12;4451927;32;34190;-86
2023/10/26 06:48:11;;;;;;;10.18;4.97;;;;;;;15.01;74.48;97596.62;4449264;32;34277;-87
2023/10/26 06:50:41;;;;;;;13.00;6.00;;;;;;;15.26;73.82;97590.63;4436364;32;34135;-86
2023/10/26 06:53:10;;;;;;;9.85;5.62;;;;;;;15.15;73.49;97592.72;4438789;32;35168;-86
2023/10/26 06:55:37;;;;;;;9.90;5.93;;;;;;;15.18;73.11;97601.31;4450961;32;34139;-87
2023/10/26 06:58:05;;;;;;;9.57;6.12;;;;;;;14.83;75.24;97599.75;4451856;32;34126;-86
2023/10/26 07:00:34;;;;;;;11.70;7.00;;;;;;;14.67;75.81;97598.50;4436700;32;33794;-87
2023/10/26 07:03:02;;;;;;;11.23;7.18;;;;;;;14.66;75.92;97597.66;4437849;32;34829;-86
2023/10/26 07:05:29;;;;;;;10.15;6.80;;;;;;;14.77;75.48;97590.38;4450699;32;34937;-84
2023/10/26 07:07:59;;;;;;;10.35;7.25;;;;;;;14.86;75.14;97604.06;4451314;32;33887;-86
2023/10/26 07:10:27;;;;;;;13.00;8.43;;;;;;;14.77;75.64;97613.88;4451892;32;34408;-86
2023/10/26 07:12:54;;;;;;;11.43;7.57;;;;;;;14.68;76.03;97614.09;4451789;32;33612;-87
2023/10/26 07:15:22;;;;;;;17.08;8.82;;;;;;;14.75;75.84;97622.63;4451579;32;34168;-87
2023/10/26 07:17:49;;;;;;;12.37;8.15;;;;;;;14.36;78.08;97620.19;4436690;32;33924;-86
2023/10/26 07:20:17;;;;;;;11.27;8.40;;;;;;;14.59;77.24;97617.00;4436162;32;33859;-86
2023/10/26 07:22:45;;;;;;;12.48;9.23;;;;;;;14.74;76.44;97624.38;4436029;32;33710;-85
2023/10/26 07:25:12;;;;;;;12.85;8.95;;;;;;;14.51;77.71;97625.03;4436287;32;33989;-86
2023/10/26 07:27:40;;;;;;;14.10;9.52;;;;;;;14.51;77.71;97626.78;4436184;32;34692;-85
2023/10/26 07:30:08;;;;;;;13.98;9.05;;;;;;;14.92;75.69;97609.91;4437120;32;36067;-86
2023/10/26 07:32:35;;;;;;;15.57;9.90;;;;;;;14.74;77.20;97607.87;4448752;32;33552;-86
2023/10/26 07:35:04;;;;;;;13.10;9.18;;;;;;;14.93;76.69;97605.59;4436093;32;34936;-86
2023/10/26 07:37:31;;;;;;;16.90;9.77;;;;;;;14.92;75.91;97604.69;4445117;32;35042;-86
2023/10/26 07:39:59;;;;;;;16.20;10.38;;;;;;;14.66;77.43;97613.31;4451558;32;32994;-84
2023/10/26 07:42:47;;;;;;;16.12;10.20;;;;;;;14.14;80.33;97629.47;4450603;32;34792;-87
2023/10/26 07:45:15;;;;;;;15.05;10.35;;;;;;;14.75;77.26;97614.78;4437921;32;33822;-87
2023/10/26 07:47:43;;;;;;;12.80;9.95;;;;;;;14.61;77.96;97633.44;4452021;32;33935;-87
2023/10/26 07:50:12;;;;;;;12.95;8.82;;;;;;;15.06;76.35;97630.41;4448806;32;85742;-87
2023/10/26 07:52:39;;;;;;;13.50;8.80;;;;;;;14.81;77.59;97628.53;4451673;32;34716;-87
2023/10/26 07:55:08;;;;;;;13.57;8.98;;;;;;;14.49;78.93;97631.13;4447033;32;34862;-87
2023/10/26 07:57:36;;;;;;;15.55;9.38;;;;;;;14.74;77.80;97631.34;4436025;32;34214;-86
2023/10/26 08:00:04;;;;;;;13.73;8.82;;;;;;;14.68;77.61;97640.19;4422495;32;33672;-89
2023/10/26 08:02:39;;;;;;;13.60;8.18;;;;;;;14.74;77.58;97641.78;4436020;32;34032;-86
2023/10/26 08:05:09;;;;;;;11.32;8.38;;;;;;;15.02;76.67;97644.44;4436123;32;34574;-88
2023/10/26 08:07:37;;;;;;;15.32;8.93;;;;;;;14.92;76.72;97656.88;4440966;32;34724;-88
2023/10/26 08:10:05;;;;;;;13.02;8.15;;;;;;;15.12;75.79;97647.66;4451121;32;33839;-88
2023/10/26 08:12:33;;;;;;;12.05;8.18;;;;;;;15.25;74.85;97641.16;4444816;32;35227;-87
2023/10/26 08:15:02;;;;;;;12.82;8.25;;;;;;;15.00;75.59;97639.28;4436814;32;33859;-87
2023/10/26 08:17:49;;;;;;;12.15;8.77;;;;;;;15.09;75.43;97648.59;4424908;32;34204;-87
2023/10/26 08:20:17;;;;;;;13.13;9.77;;;;;;;15.00;75.89;97660.16;4436417;32;33926;-87
2023/10/26 08:22:44;;;;;;;15.18;9.43;;;;;;;14.70;77.59;97661.87;4444374;32;33558;-87
2023/10/26 08:25:12;;;;;;;13.15;8.60;;;;;;;15.07;76.15;97669.50;4451363;32;35037;-87
2023/10/26 08:27:44;;;;;;;12.90;8.40;;;;;;;15.18;75.72;97661.34;4451697;32;33756;-88
2023/10/26 08:30:11;;;;;;;11.10;8.52;;;;;;;14.98;76.09;97666.31;4451052;32;34094;-85
2023/10/26 08:32:39;;;;;;;16.98;8.50;;;;;;;15.27;75.53;97665.47;4451118;32;33996;-87
2023/10/26 08:35:07;;;;;;;12.90;8.73;;;;;;;15.18;75.96;97665.72;4448300;32;34186;-88
2023/10/26 08:37:35;;;;;;;12.63;9.00;;;;;;;15.40;75.06;97658.94;4434400;32;33855;-87
2023/10/26 08:40:04;;;;;;;11.70;8.02;;;;;;;15.52;74.64;97657.72;4435171;32;34157;-86
2023/10/26 08:42:31;;;;;;;11.65;8.02;;;;;;;15.85;71.98;97654.97;4435884;32;33511;-87
2023/10/26 08:44:59;;;;;;;11.48;8.48;;;;;;;15.58;73.36;97658.38;4434200;32;34581;-87
2023/10/26 08:47:27;;;;;;;14.00;12.05;;;;;;;15.35;74.36;97650.41;4434412;32;34867;-87
2023/10/26 08:49:57;;;;;;;14.68;12.75;;;;;;;15.48;74.22;97662.19;4438005;32;34529;-87
2023/10/26 08:52:41;;;;;;;;;;;;;;;15.45;74.65;97654.44;4448592;32;34146;-87
2023/10/26 08:55:09;;;;;;;12.50;8.10;;;;;;;15.80;72.69;97649.91;4439764;32;34025;-87
2023/10/26 08:57:51;;;;;;;11.80;8.60;;;;;;;15.71;73.43;97652.78;4435495;32;34283;-88
2023/10/26 09:00:19;;;;;;;16.83;12.68;;;;;;;15.69;73.87;97652.84;4434062;32;34159;-87
2023/10/26 09:02:50;;;;;;;11.45;8.40;;;;;;;16.17;71.99;97646.03;4433625;32;34728;-87
2023/10/26 09:05:19;;;;;;;11.05;8.88;;;;;;;16.29;72.15;97664.81;4434018;32;33561;-87
2023/10/26 09:07:46;;;;;;;11.45;8.00;;;;;;;16.03;71.87;97655.22;4434707;32;34144;-87
2023/10/26 09:10:30;;;;;;;10.73;7.55;;;;;;;16.19;70.79;97665.16;4434221;32;34536;-87
2023/10/26 09:13:04;;;;;;;10.13;7.22;;;;;;;16.48;70.06;97667.66;4421912;32;33508;-87
2023/10/26 09:15:53;;;;;;;11.82;8.43;;;;;;;16.49;70.03;97658.88;4434616;32;33918;-87
2023/10/26 09:18:21;;;;;;;11.32;7.68;;;;;;;16.88;68.37;97666.25;4435655;32;33740;-86
2023/10/26 09:21:08;;;;;;;12.82;8.65;;;;;;;16.81;69.42;97669.97;4437164;32;33269;-87
2023/10/26 09:23:37;;;;;;;12.60;8.15;;;;;;;16.95;68.43;97674.72;4437347;32;33644;-87
2023/10/26 09:26:08;;;;;;;14.00;8.68;;;;;;;17.08;68.12;97668.09;4432938;32;34795;-85
2023/10/26 09:28:55;;;;;;;16.33;8.80;;;;;;;17.13;68.21;97674.06;4440442;32;34056;-87
2023/10/26 09:31:23;;;;;;;;;;;;;;;17.32;68.07;97668.13;4438817;32;33851;-87
2023/10/26 09:33:51;;;;;;;10.75;7.37;;;;;;;17.11;67.48;97683.72;4452712;32;33921;-87
2023/10/26 09:36:20;;;;;;;9.80;7.45;;;;;;;17.19;67.03;97683.41;4438521;32;34149;-87
2023/10/26 09:38:47;;;;;;;12.60;8.00;;;;;;;17.06;67.03;97679.56;4438758;32;34329;-87
2023/10/26 09:41:16;;;;;;;14.63;9.77;;;;;;;16.95;68.25;97686.03;4452426;32;33737;-86
2023/10/26 09:43:44;;;;;;;15.70;10.07;;;;;;;16.88;68.63;97681.94;4446797;32;33832;-87
2023/10/26 09:46:13;;;;;;;12.50;9.88;;;;;;;16.99;68.13;97674.56;4437560;32;34322;-87
2023/10/26 09:48:41;;;;;;;14.32;9.15;;;;;;;16.98;67.12;97672.84;4442610;32;33994;-86
2023/10/26 09:51:14;;;;;;;12.77;9.32;;;;;;;17.19;66.78;97665.09;4464702;32;34269;-87
2023/10/26 09:53:42;;;;;;;15.57;10.00;;;;;;;17.50;65.85;97670.88;4465495;32;33645;-86
2023/10/26 09:56:20;;;;;;;13.55;8.63;;;;;;;17.31;66.25;97667.25;4439021;32;34101;-87
2023/10/26 09:58:48;;;;;;;12.02;8.68;;;;;;;17.58;65.24;97672.31;4438212;32;34048;-87
2023/10/26 10:01:37;;;;;;;12.15;8.48;;;;;;;17.62;63.87;97666.06;4438379;32;34387;-87
2023/10/26 10:04:07;;;;;;;11.90;8.48;;;;;;;17.79;62.85;97660.19;4438678;32;33485;-88
2023/10/26 10:06:49;;;;;;;12.80;9.02;;;;;;;17.75;63.25;97662.06;4431751;32;33661;-85
2023/10/26 10:09:23;;;;;;;11.45;8.95;;;;;;;17.80;63.68;97665.34;4436778;32;33979;-87
2023/10/26 10:12:08;;;;;;;13.93;9.38;;;;;;;17.97;62.59;97655.03;4423009;32;34555;-87
2023/10/26 10:14:48;;;;;;;12.95;9.93;;;;;;;18.00;62.10;97648.81;4436711;32;34103;-87
2023/10/26 10:17:17;;;;;;;15.00;9.48;;;;;;;17.78;63.15;97643.59;4436775;32;34021;-85
2023/10/26 10:20:19;;;;;;;12.60;9.30;;;;;;;17.77;62.78;97646.25;4436576;32;33632;-85
2023/10/26 10:22:48;;;;;;;12.35;8.80;;;;;;;17.87;61.43;97648.47;4436696;32;33593;-86
2023/10/26 10:25:23;;;;;;;11.12;7.72;;;;;;;17.61;62.11;97635.53;4436908;32;33795;-86
2023/10/26 10:27:50;;;;;;;11.45;7.10;;;;;;;17.98;62.16;97637.53;4423456;32;33943;-86
2023/10/26 10:30:21;;;;;;;10.95;7.25;;;;;;;17.50;61.47;97634.19;4435882;32;34277;-86
2023/10/26 10:32:50;;;;;;;10.23;5.53;;;;;;;17.34;61.67;97633.06;4437042;32;33481;-87
2023/10/26 10:35:22;;;;;;;10.43;5.47;;;;;;;17.95;60.57;97630.63;4423186;32;33977;-85
2023/10/26 10:38:21;;;;;;;8.68;5.45;;;;;;;18.15;59.02;97636.84;4436971;32;33883;-86
2023/10/26 10:40:57;;;;;;;8.20;3.83;;;;;;;18.24;57.37;97637.28;4436566;32;34562;-87
2023/10/26 10:43:36;;;;;;;7.53;4.55;;;;;;;18.20;56.87;97629.63;4454937;32;33119;-85
2023/10/26 10:46:20;;;;;;;7.70;4.37;;;;;;;18.22;56.65;97635.63;4453545;32;33974;-87
2023/10/26 10:48:55;;;;;;;7.68;4.75;;;;;;;18.28;55.95;97626.69;4453795;32;33946;-86
2023/10/26 10:51:31;;;;;;;7.70;4.37;;;;;;;18.39;56.21;97620.03;4467713;32;34408;-87
2023/10/26 10:54:00;;;;;;;6.12;4.05;;;;;;;18.52;55.42;97616.88;4467502;32;33495;-87
2023/10/26 10:56:46;;;;;;;8.35;4.53;;;;;;;18.70;53.33;97619.56;4454444;32;34646;-85
2023/10/26 10:59:22;;;;;;;8.30;5.50;;;;;;;18.32;56.31;97623.00;4467860;32;34224;-85
2023/10/26 11:01:51;;;;;;;8.15;4.55;;;;;;;18.63;57.71;97625.13;4453720;32;34133;-87
2023/10/26 11:04:20;;;;;;;7.35;4.47;;;;;;;18.75;57.04;97635.09;4467713;32;33648;-88
2023/10/26 11:06:49;;;;;;;4.85;2.30;;;;;;;18.75;55.99;97627.22;4467647;32;33984;-87
2023/10/26 11:09:22;;;;;;;6.12;2.33;;;;;;;18.53;51.21;97615.97;4467742;32;35127;-87
2023/10/26 11:11:49;;;;;;;6.15;3.35;;;;;;;18.98;51.46;97615.72;4467393;32;34417;-87
2023/10/26 11:14:20;;;;;;;4.72;2.55;;;;;;;18.81;57.20;97610.38;4467495;32;33359;-87
2023/10/26 11:16:49;;;;;;;5.20;2.45;;;;;;;18.64;51.83;97608.47;4467158;32;34043;-85
2023/10/26 11:19:16;;;;;;;4.10;2.28;;;;;;;18.95;50.99;97602.72;4434757;32;34143;-85
2023/10/26 11:21:44;;;;;;;4.43;2.12;;;;;;;18.89;50.96;97603.00;4446460;32;33869;-86
2023/10/26 11:24:17;;;;;;;5.37;1.90;;;;;;;19.05;52.07;97601.34;4422279;32;34589;-85
2023/10/26 11:27:05;;;;;;;6.37;2.50;;;;;;;19.13;51.05;97603.62;4436124;32;34353;-85
2023/10/26 11:29:33;;;;;;;4.10;1.98;;;;;;;18.53;51.58;97589.75;4436980;32;34730;-86
2023/10/26 11:32:00;;;;;;;4.70;2.22;;;;;;;18.64;50.46;97590.09;4451563;32;34926;-85
2023/10/26 11:34:28;;;;;;;4.07;2.28;;;;;;;19.14;47.30;97602.72;4437392;32;34613;-85
2023/10/26 11:36:57;;;;;;;3.58;1.92;;;;;;;19.20;48.33;97586.66;4437602;32;33852;-86
2023/10/26 11:39:25;;;;;;;5.55;2.08;;;;;;;19.14;49.13;97586.97;4451004;32;33926;-86
2023/10/26 11:41:56;;;;;;;4.03;1.85;;;;;;;19.32;47.38;97588.72;4451334;32;33904;-86